Uniopolis, Ohio
Current Conditions -  °F | °C
As of 3:53 AM on Friday 24 Oct 2014 (Local Time) from KAOH Reporting Station
Clear Clear  
Wind Chill: 39°   Ceiling: Unl
Heat Index: 42°   Visibility: 7mi
Dew Point: 38°   Wind: 5mph
Humidity: 85%   Direction: 160°SSE
Pressure: 30.1"   Gusts: NA
Location:  40.6°N, 84.09°W
Report Text: KAOH 240753Z AUTO 16004KT 7SM CLR 06/03 A3010 RMK AO2 SLP194 T00560033
Loading
Personal Weather Stations






























Interactive Weather Map
Tropical Storm Tracking
New forecast layout! Learn more

10-Day Weather Forecast

Advertisements
Track Severe Weather on mobile